sensor_id;sensor_type;location;lat;lon;timestamp;P1;durP1;ratioP1;P2;durP2;ratioP2
46407;SDS011;32110;45.724;21.276;2022-07-18T00:00:06;1.80;;;1.10;;
46407;SDS011;32110;45.724;21.276;2022-07-18T00:02:32;5.70;;;1.30;;
46407;SDS011;32110;45.724;21.276;2022-07-18T00:04:57;2.63;;;1.30;;
46407;SDS011;32110;45.724;21.276;2022-07-18T00:07:22;2.47;;;1.40;;
46407;SDS011;32110;45.724;21.276;2022-07-18T00:09:48;2.53;;;1.50;;
46407;SDS011;32110;45.724;21.276;2022-07-18T00:12:13;3.08;;;1.30;;
46407;SDS011;32110;45.724;21.276;2022-07-18T00:14:39;3.72;;;1.40;;
46407;SDS011;32110;45.724;21.276;2022-07-18T00:17:05;3.28;;;1.95;;
46407;SDS011;32110;45.724;21.276;2022-07-18T00:19:30;3.00;;;1.25;;
46407;SDS011;32110;45.724;21.276;2022-07-18T00:21:56;3.72;;;1.33;;
46407;SDS011;32110;45.724;21.276;2022-07-18T00:24:21;4.43;;;1.37;;
46407;SDS011;32110;45.724;21.276;2022-07-18T00:26:46;2.13;;;1.20;;
46407;SDS011;32110;45.724;21.276;2022-07-18T00:29:12;2.95;;;1.25;;
46407;SDS011;32110;45.724;21.276;2022-07-18T00:31:37;3.67;;;1.30;;
46407;SDS011;32110;45.724;21.276;2022-07-18T00:34:03;3.63;;;1.17;;
46407;SDS011;32110;45.724;21.276;2022-07-18T00:36:28;3.60;;;1.40;;
46407;SDS011;32110;45.724;21.276;2022-07-18T00:38:55;2.78;;;1.38;;
46407;SDS011;32110;45.724;21.276;2022-07-18T00:41:21;3.15;;;1.38;;
46407;SDS011;32110;45.724;21.276;2022-07-18T00:43:47;5.57;;;1.63;;
46407;SDS011;32110;45.724;21.276;2022-07-18T00:46:12;4.00;;;1.58;;
46407;SDS011;32110;45.724;21.276;2022-07-18T00:48:41;4.73;;;1.60;;
46407;SDS011;32110;45.724;21.276;2022-07-18T00:51:07;8.57;;;1.88;;
46407;SDS011;32110;45.724;21.276;2022-07-18T00:53:33;7.57;;;1.73;;
46407;SDS011;32110;45.724;21.276;2022-07-18T00:55:59;3.70;;;1.83;;
46407;SDS011;32110;45.724;21.276;2022-07-18T00:58:25;3.25;;;1.48;;
46407;SDS011;32110;45.724;21.276;2022-07-18T01:00:51;3.65;;;1.50;;
46407;SDS011;32110;45.724;21.276;2022-07-18T01:03:35;3.15;;;1.30;;
46407;SDS011;32110;45.724;21.276;2022-07-18T01:06:00;3.28;;;1.52;;
46407;SDS011;32110;45.724;21.276;2022-07-18T01:08:25;4.07;;;1.92;;
46407;SDS011;32110;45.724;21.276;2022-07-18T01:10:51;6.40;;;1.52;;
46407;SDS011;32110;45.724;21.276;2022-07-18T01:13:16;3.40;;;1.33;;
46407;SDS011;32110;45.724;21.276;2022-07-18T01:15:42;2.58;;;1.50;;
46407;SDS011;32110;45.724;21.276;2022-07-18T01:18:07;3.40;;;1.70;;
46407;SDS011;32110;45.724;21.276;2022-07-18T01:20:32;6.25;;;1.23;;
46407;SDS011;32110;45.724;21.276;2022-07-18T01:22:58;8.97;;;1.57;;
46407;SDS011;32110;45.724;21.276;2022-07-18T01:25:24;2.13;;;1.40;;
46407;SDS011;32110;45.724;21.276;2022-07-18T01:27:49;3.92;;;1.38;;
46407;SDS011;32110;45.724;21.276;2022-07-18T01:30:15;3.83;;;1.20;;
46407;SDS011;32110;45.724;21.276;2022-07-18T01:32:41;2.85;;;1.60;;
46407;SDS011;32110;45.724;21.276;2022-07-18T01:35:06;3.22;;;1.27;;
46407;SDS011;32110;45.724;21.276;2022-07-18T01:37:31;2.38;;;1.55;;
46407;SDS011;32110;45.724;21.276;2022-07-18T01:39:57;2.03;;;1.20;;
46407;SDS011;32110;45.724;21.276;2022-07-18T01:42:22;3.20;;;1.50;;
46407;SDS011;32110;45.724;21.276;2022-07-18T01:44:47;5.88;;;2.20;;
46407;SDS011;32110;45.724;21.276;2022-07-18T01:47:13;2.33;;;1.60;;
46407;SDS011;32110;45.724;21.276;2022-07-18T01:49:38;4.60;;;1.60;;
46407;SDS011;32110;45.724;21.276;2022-07-18T01:52:05;4.40;;;1.40;;
46407;SDS011;32110;45.724;21.276;2022-07-18T01:54:31;3.10;;;1.30;;
46407;SDS011;32110;45.724;21.276;2022-07-18T01:56:57;3.58;;;1.38;;
46407;SDS011;32110;45.724;21.276;2022-07-18T01:59:22;3.92;;;2.00;;
46407;SDS011;32110;45.724;21.276;2022-07-18T02:01:48;2.10;;;1.35;;
46407;SDS011;32110;45.724;21.276;2022-07-18T02:04:13;5.10;;;1.40;;
46407;SDS011;32110;45.724;21.276;2022-07-18T02:06:39;2.37;;;1.20;;
46407;SDS011;32110;45.724;21.276;2022-07-18T02:09:05;5.13;;;1.73;;
46407;SDS011;32110;45.724;21.276;2022-07-18T02:11:31;5.10;;;1.35;;
46407;SDS011;32110;45.724;21.276;2022-07-18T02:13:56;7.03;;;1.98;;
46407;SDS011;32110;45.724;21.276;2022-07-18T02:16:21;1.93;;;1.27;;
46407;SDS011;32110;45.724;21.276;2022-07-18T02:18:47;2.75;;;1.40;;
46407;SDS011;32110;45.724;21.276;2022-07-18T02:21:12;7.30;;;1.80;;
46407;SDS011;32110;45.724;21.276;2022-07-18T02:23:39;6.28;;;1.42;;
46407;SDS011;32110;45.724;21.276;2022-07-18T02:26:04;3.42;;;1.40;;
46407;SDS011;32110;45.724;21.276;2022-07-18T02:28:29;5.60;;;1.48;;
46407;SDS011;32110;45.724;21.276;2022-07-18T02:30:54;3.47;;;1.50;;
46407;SDS011;32110;45.724;21.276;2022-07-18T02:33:20;3.17;;;1.43;;
46407;SDS011;32110;45.724;21.276;2022-07-18T02:35:45;3.80;;;1.30;;
46407;SDS011;32110;45.724;21.276;2022-07-18T02:38:10;2.23;;;1.43;;
46407;SDS011;32110;45.724;21.276;2022-07-18T02:40:36;1.63;;;1.33;;
46407;SDS011;32110;45.724;21.276;2022-07-18T02:43:02;4.03;;;1.42;;
46407;SDS011;32110;45.724;21.276;2022-07-18T02:45:27;4.25;;;1.50;;
46407;SDS011;32110;45.724;21.276;2022-07-18T02:47:53;6.00;;;1.90;;
46407;SDS011;32110;45.724;21.276;2022-07-18T02:50:18;2.65;;;1.60;;
46407;SDS011;32110;45.724;21.276;2022-07-18T02:52:43;3.20;;;1.80;;
46407;SDS011;32110;45.724;21.276;2022-07-18T02:55:09;3.40;;;1.58;;
46407;SDS011;32110;45.724;21.276;2022-07-18T02:57:35;3.92;;;1.83;;
46407;SDS011;32110;45.724;21.276;2022-07-18T03:00:00;3.55;;;1.60;;
46407;SDS011;32110;45.724;21.276;2022-07-18T03:02:25;2.70;;;1.48;;
46407;SDS011;32110;45.724;21.276;2022-07-18T03:04:51;3.88;;;1.70;;
46407;SDS011;32110;45.724;21.276;2022-07-18T03:07:16;4.25;;;1.63;;
46407;SDS011;32110;45.724;21.276;2022-07-18T03:09:42;8.83;;;1.80;;
46407;SDS011;32110;45.724;21.276;2022-07-18T03:12:07;3.20;;;1.60;;
46407;SDS011;32110;45.724;21.276;2022-07-18T03:14:32;5.25;;;1.80;;
46407;SDS011;32110;45.724;21.276;2022-07-18T03:16:58;3.47;;;1.90;;
46407;SDS011;32110;45.724;21.276;2022-07-18T03:19:23;3.58;;;1.85;;
46407;SDS011;32110;45.724;21.276;2022-07-18T03:21:48;3.43;;;1.80;;
46407;SDS011;32110;45.724;21.276;2022-07-18T03:24:14;2.30;;;1.50;;
46407;SDS011;32110;45.724;21.276;2022-07-18T03:26:39;2.90;;;1.70;;
46407;SDS011;32110;45.724;21.276;2022-07-18T03:29:05;2.35;;;1.80;;
46407;SDS011;32110;45.724;21.276;2022-07-18T03:31:30;7.67;;;2.00;;
46407;SDS011;32110;45.724;21.276;2022-07-18T03:33:55;4.47;;;1.50;;
46407;SDS011;32110;45.724;21.276;2022-07-18T03:36:21;3.15;;;1.77;;
46407;SDS011;32110;45.724;21.276;2022-07-18T03:38:46;3.10;;;1.70;;
46407;SDS011;32110;45.724;21.276;2022-07-18T03:41:12;5.57;;;1.63;;
46407;SDS011;32110;45.724;21.276;2022-07-18T03:43:37;4.13;;;1.73;;
46407;SDS011;32110;45.724;21.276;2022-07-18T03:46:03;6.65;;;1.98;;
46407;SDS011;32110;45.724;21.276;2022-07-18T03:48:28;4.72;;;1.77;;
46407;SDS011;32110;45.724;21.276;2022-07-18T03:50:54;4.22;;;1.80;;
46407;SDS011;32110;45.724;21.276;2022-07-18T03:53:19;2.35;;;1.60;;
46407;SDS011;32110;45.724;21.276;2022-07-18T03:55:44;4.40;;;1.80;;
46407;SDS011;32110;45.724;21.276;2022-07-18T03:58:09;6.68;;;1.73;;
46407;SDS011;32110;45.724;21.276;2022-07-18T04:00:35;5.87;;;2.00;;
46407;SDS011;32110;45.724;21.276;2022-07-18T04:03:00;4.35;;;1.73;;
46407;SDS011;32110;45.724;21.276;2022-07-18T04:05:25;4.05;;;1.92;;
46407;SDS011;32110;45.724;21.276;2022-07-18T04:07:51;4.77;;;1.87;;
46407;SDS011;32110;45.724;21.276;2022-07-18T04:10:16;4.07;;;1.90;;
46407;SDS011;32110;45.724;21.276;2022-07-18T04:12:45;6.43;;;1.83;;
46407;SDS011;32110;45.724;21.276;2022-07-18T04:15:11;4.82;;;1.80;;
46407;SDS011;32110;45.724;21.276;2022-07-18T04:17:36;4.50;;;1.90;;
46407;SDS011;32110;45.724;21.276;2022-07-18T04:20:02;3.87;;;1.63;;
46407;SDS011;32110;45.724;21.276;2022-07-18T04:22:27;2.90;;;1.80;;
46407;SDS011;32110;45.724;21.276;2022-07-18T04:24:53;5.53;;;2.00;;
46407;SDS011;32110;45.724;21.276;2022-07-18T04:27:18;7.83;;;1.90;;
46407;SDS011;32110;45.724;21.276;2022-07-18T04:29:43;8.33;;;1.80;;
46407;SDS011;32110;45.724;21.276;2022-07-18T04:32:08;4.93;;;1.63;;
46407;SDS011;32110;45.724;21.276;2022-07-18T04:34:34;3.40;;;2.17;;
46407;SDS011;32110;45.724;21.276;2022-07-18T04:36:59;6.50;;;2.63;;
46407;SDS011;32110;45.724;21.276;2022-07-18T04:39:24;4.82;;;1.90;;
46407;SDS011;32110;45.724;21.276;2022-07-18T04:41:49;6.30;;;1.60;;
46407;SDS011;32110;45.724;21.276;2022-07-18T04:44:15;9.33;;;1.97;;
46407;SDS011;32110;45.724;21.276;2022-07-18T04:46:40;7.50;;;1.87;;
46407;SDS011;32110;45.724;21.276;2022-07-18T04:49:05;3.83;;;1.60;;
46407;SDS011;32110;45.724;21.276;2022-07-18T04:51:31;6.77;;;1.53;;
46407;SDS011;32110;45.724;21.276;2022-07-18T04:53:56;3.47;;;1.77;;
46407;SDS011;32110;45.724;21.276;2022-07-18T04:56:21;5.13;;;1.47;;
46407;SDS011;32110;45.724;21.276;2022-07-18T04:58:47;2.80;;;1.67;;
46407;SDS011;32110;45.724;21.276;2022-07-18T05:01:12;8.02;;;1.50;;
46407;SDS011;32110;45.724;21.276;2022-07-18T05:03:38;2.20;;;1.40;;
46407;SDS011;32110;45.724;21.276;2022-07-18T05:06:03;9.38;;;1.77;;
46407;SDS011;32110;45.724;21.276;2022-07-18T05:08:28;5.85;;;1.80;;
46407;SDS011;32110;45.724;21.276;2022-07-18T05:10:53;12.50;;;1.70;;
46407;SDS011;32110;45.724;21.276;2022-07-18T05:13:19;7.85;;;1.58;;
46407;SDS011;32110;45.724;21.276;2022-07-18T05:15:44;6.77;;;1.50;;
46407;SDS011;32110;45.724;21.276;2022-07-18T05:18:09;9.07;;;1.80;;
46407;SDS011;32110;45.724;21.276;2022-07-18T05:20:34;8.10;;;1.43;;
46407;SDS011;32110;45.724;21.276;2022-07-18T05:23:00;18.67;;;3.10;;
46407;SDS011;32110;45.724;21.276;2022-07-18T05:25:25;9.43;;;1.80;;
46407;SDS011;32110;45.724;21.276;2022-07-18T05:27:51;8.00;;;1.73;;
46407;SDS011;32110;45.724;21.276;2022-07-18T05:30:17;9.38;;;1.67;;
46407;SDS011;32110;45.724;21.276;2022-07-18T05:32:42;9.23;;;1.55;;
46407;SDS011;32110;45.724;21.276;2022-07-18T05:35:08;12.77;;;1.80;;
46407;SDS011;32110;45.724;21.276;2022-07-18T05:37:34;4.10;;;1.50;;
46407;SDS011;32110;45.724;21.276;2022-07-18T05:40:02;4.20;;;1.20;;
46407;SDS011;32110;45.724;21.276;2022-07-18T05:42:29;7.00;;;1.53;;
46407;SDS011;32110;45.724;21.276;2022-07-18T05:44:54;2.75;;;1.30;;
46407;SDS011;32110;45.724;21.276;2022-07-18T05:47:20;1.30;;;1.20;;
46407;SDS011;32110;45.724;21.276;2022-07-18T05:49:45;4.73;;;1.40;;
46407;SDS011;32110;45.724;21.276;2022-07-18T05:52:10;4.75;;;1.40;;
46407;SDS011;32110;45.724;21.276;2022-07-18T05:54:36;10.05;;;1.48;;
46407;SDS011;32110;45.724;21.276;2022-07-18T05:57:01;3.80;;;1.20;;
46407;SDS011;32110;45.724;21.276;2022-07-18T05:59:26;2.57;;;1.30;;
46407;SDS011;32110;45.724;21.276;2022-07-18T06:01:51;1.70;;;1.40;;
46407;SDS011;32110;45.724;21.276;2022-07-18T06:04:17;12.00;;;2.53;;
46407;SDS011;32110;45.724;21.276;2022-07-18T06:06:42;3.13;;;1.20;;
46407;SDS011;32110;45.724;21.276;2022-07-18T06:09:08;3.28;;;1.30;;
46407;SDS011;32110;45.724;21.276;2022-07-18T06:11:33;3.90;;;1.35;;
46407;SDS011;32110;45.724;21.276;2022-07-18T06:13:59;1.73;;;1.20;;
46407;SDS011;32110;45.724;21.276;2022-07-18T06:16:24;4.20;;;1.30;;
46407;SDS011;32110;45.724;21.276;2022-07-18T06:18:49;5.10;;;1.63;;
46407;SDS011;32110;45.724;21.276;2022-07-18T06:21:15;4.35;;;1.58;;
46407;SDS011;32110;45.724;21.276;2022-07-18T06:23:40;4.15;;;1.50;;
46407;SDS011;32110;45.724;21.276;2022-07-18T06:26:06;5.05;;;1.50;;
46407;SDS011;32110;45.724;21.276;2022-07-18T06:28:31;10.77;;;1.70;;
46407;SDS011;32110;45.724;21.276;2022-07-18T06:30:57;8.70;;;1.40;;
46407;SDS011;32110;45.724;21.276;2022-07-18T06:33:22;4.53;;;1.42;;
46407;SDS011;32110;45.724;21.276;2022-07-18T06:35:48;3.60;;;1.52;;
46407;SDS011;32110;45.724;21.276;2022-07-18T06:38:14;4.43;;;1.35;;
46407;SDS011;32110;45.724;21.276;2022-07-18T06:40:40;1.42;;;1.20;;
46407;SDS011;32110;45.724;21.276;2022-07-18T06:43:06;1.25;;;1.10;;
46407;SDS011;32110;45.724;21.276;2022-07-18T06:45:32;3.30;;;1.42;;
46407;SDS011;32110;45.724;21.276;2022-07-18T06:47:58;3.63;;;1.23;;
46407;SDS011;32110;45.724;21.276;2022-07-18T06:50:24;3.58;;;1.20;;
46407;SDS011;32110;45.724;21.276;2022-07-18T06:52:49;2.58;;;1.30;;
46407;SDS011;32110;45.724;21.276;2022-07-18T06:55:15;3.20;;;1.40;;
46407;SDS011;32110;45.724;21.276;2022-07-18T06:57:41;3.55;;;1.20;;
46407;SDS011;32110;45.724;21.276;2022-07-18T07:00:07;3.28;;;1.40;;
46407;SDS011;32110;45.724;21.276;2022-07-18T07:02:34;5.80;;;1.50;;
46407;SDS011;32110;45.724;21.276;2022-07-18T07:04:59;3.88;;;1.27;;
46407;SDS011;32110;45.724;21.276;2022-07-18T07:07:25;2.10;;;1.13;;
46407;SDS011;32110;45.724;21.276;2022-07-18T07:09:50;2.63;;;1.30;;
46407;SDS011;32110;45.724;21.276;2022-07-18T07:12:16;2.33;;;1.20;;
46407;SDS011;32110;45.724;21.276;2022-07-18T07:14:41;3.70;;;1.15;;
46407;SDS011;32110;45.724;21.276;2022-07-18T07:17:07;2.83;;;1.25;;
46407;SDS011;32110;45.724;21.276;2022-07-18T07:19:33;7.40;;;1.13;;
46407;SDS011;32110;45.724;21.276;2022-07-18T07:21:58;6.80;;;1.23;;
46407;SDS011;32110;45.724;21.276;2022-07-18T07:24:23;1.80;;;1.20;;
46407;SDS011;32110;45.724;21.276;2022-07-18T07:26:49;1.75;;;1.10;;
46407;SDS011;32110;45.724;21.276;2022-07-18T07:29:14;6.20;;;1.30;;
46407;SDS011;32110;45.724;21.276;2022-07-18T07:31:40;3.58;;;1.23;;
46407;SDS011;32110;45.724;21.276;2022-07-18T07:34:07;2.25;;;1.20;;
46407;SDS011;32110;45.724;21.276;2022-07-18T07:36:32;2.83;;;1.30;;
46407;SDS011;32110;45.724;21.276;2022-07-18T07:38:58;2.50;;;1.20;;
46407;SDS011;32110;45.724;21.276;2022-07-18T07:41:23;3.03;;;1.23;;
46407;SDS011;32110;45.724;21.276;2022-07-18T07:43:49;5.70;;;1.35;;
46407;SDS011;32110;45.724;21.276;2022-07-18T07:46:14;3.47;;;1.45;;
46407;SDS011;32110;45.724;21.276;2022-07-18T07:48:40;1.83;;;1.10;;
46407;SDS011;32110;45.724;21.276;2022-07-18T07:51:05;4.35;;;1.40;;
46407;SDS011;32110;45.724;21.276;2022-07-18T07:53:31;2.42;;;1.23;;
46407;SDS011;32110;45.724;21.276;2022-07-18T07:55:57;2.28;;;1.10;;
46407;SDS011;32110;45.724;21.276;2022-07-18T07:58:22;2.38;;;1.02;;
46407;SDS011;32110;45.724;21.276;2022-07-18T08:00:48;2.88;;;1.00;;
46407;SDS011;32110;45.724;21.276;2022-07-18T08:03:13;4.15;;;1.02;;
46407;SDS011;32110;45.724;21.276;2022-07-18T08:05:44;1.85;;;1.08;;
46407;SDS011;32110;45.724;21.276;2022-07-18T08:08:10;1.40;;;0.90;;
46407;SDS011;32110;45.724;21.276;2022-07-18T08:10:36;3.83;;;1.33;;
46407;SDS011;32110;45.724;21.276;2022-07-18T08:13:01;7.60;;;1.10;;
46407;SDS011;32110;45.724;21.276;2022-07-18T08:15:27;2.22;;;1.00;;
46407;SDS011;32110;45.724;21.276;2022-07-18T08:17:52;2.97;;;1.20;;
46407;SDS011;32110;45.724;21.276;2022-07-18T08:20:18;2.05;;;1.10;;
46407;SDS011;32110;45.724;21.276;2022-07-18T08:25:23;5.03;;;1.23;;
46407;SDS011;32110;45.724;21.276;2022-07-18T08:27:50;2.75;;;1.00;;
46407;SDS011;32110;45.724;21.276;2022-07-18T08:30:15;2.80;;;1.45;;
46407;SDS011;32110;45.724;21.276;2022-07-18T08:32:41;1.90;;;1.13;;
46407;SDS011;32110;45.724;21.276;2022-07-18T08:35:07;2.50;;;1.05;;
46407;SDS011;32110;45.724;21.276;2022-07-18T08:37:32;6.18;;;1.08;;
46407;SDS011;32110;45.724;21.276;2022-07-18T08:39:58;4.22;;;1.00;;
46407;SDS011;32110;45.724;21.276;2022-07-18T08:42:23;1.70;;;0.90;;
46407;SDS011;32110;45.724;21.276;2022-07-18T08:44:51;6.18;;;0.90;;
46407;SDS011;32110;45.724;21.276;2022-07-18T08:49:45;1.30;;;0.85;;
46407;SDS011;32110;45.724;21.276;2022-07-18T08:52:10;3.95;;;1.20;;
46407;SDS011;32110;45.724;21.276;2022-07-18T08:54:37;6.45;;;1.25;;
46407;SDS011;32110;45.724;21.276;2022-07-18T08:57:02;4.65;;;0.90;;
46407;SDS011;32110;45.724;21.276;2022-07-18T08:59:28;4.80;;;1.23;;
46407;SDS011;32110;45.724;21.276;2022-07-18T09:01:53;3.90;;;1.15;;
46407;SDS011;32110;45.724;21.276;2022-07-18T09:04:35;4.30;;;1.00;;
46407;SDS011;32110;45.724;21.276;2022-07-18T09:07:05;2.88;;;0.90;;
46407;SDS011;32110;45.724;21.276;2022-07-18T09:09:33;2.20;;;0.98;;
46407;SDS011;32110;45.724;21.276;2022-07-18T09:12:00;2.22;;;0.90;;
46407;SDS011;32110;45.724;21.276;2022-07-18T09:14:41;2.83;;;0.88;;
46407;SDS011;32110;45.724;21.276;2022-07-18T09:19:37;2.90;;;0.80;;
46407;SDS011;32110;45.724;21.276;2022-07-18T09:22:17;1.00;;;0.80;;
46407;SDS011;32110;45.724;21.276;2022-07-18T09:30:28;6.05;;;0.98;;
46407;SDS011;32110;45.724;21.276;2022-07-18T09:35:30;1.35;;;1.00;;
46407;SDS011;32110;45.724;21.276;2022-07-18T09:38:08;2.95;;;1.13;;
46407;SDS011;32110;45.724;21.276;2022-07-18T09:40:36;1.17;;;0.88;;
46407;SDS011;32110;45.724;21.276;2022-07-18T09:43:08;4.25;;;1.20;;
46407;SDS011;32110;45.724;21.276;2022-07-18T09:45:36;1.90;;;0.98;;
46407;SDS011;32110;45.724;21.276;2022-07-18T09:48:04;2.83;;;1.23;;
46407;SDS011;32110;45.724;21.276;2022-07-18T09:50:35;1.85;;;1.10;;
46407;SDS011;32110;45.724;21.276;2022-07-18T09:55:41;1.33;;;0.90;;
46407;SDS011;32110;45.724;21.276;2022-07-18T09:58:08;1.60;;;1.00;;
46407;SDS011;32110;45.724;21.276;2022-07-18T10:00:35;3.05;;;1.00;;
46407;SDS011;32110;45.724;21.276;2022-07-18T10:03:02;2.25;;;0.90;;
46407;SDS011;32110;45.724;21.276;2022-07-18T10:07:58;3.63;;;0.90;;
46407;SDS011;32110;45.724;21.276;2022-07-18T10:10:26;2.42;;;1.02;;
46407;SDS011;32110;45.724;21.276;2022-07-18T10:12:53;1.67;;;0.95;;
46407;SDS011;32110;45.724;21.276;2022-07-18T10:15:23;2.45;;;0.80;;
46407;SDS011;32110;45.724;21.276;2022-07-18T10:17:53;1.70;;;0.93;;
46407;SDS011;32110;45.724;21.276;2022-07-18T10:20:24;3.28;;;1.00;;
46407;SDS011;32110;45.724;21.276;2022-07-18T10:22:52;0.98;;;0.80;;
46407;SDS011;32110;45.724;21.276;2022-07-18T10:25:21;2.55;;;0.90;;
46407;SDS011;32110;45.724;21.276;2022-07-18T10:27:49;3.25;;;0.80;;
46407;SDS011;32110;45.724;21.276;2022-07-18T10:30:30;1.80;;;1.00;;
46407;SDS011;32110;45.724;21.276;2022-07-18T10:32:55;2.03;;;1.10;;
46407;SDS011;32110;45.724;21.276;2022-07-18T10:35:21;2.03;;;0.93;;
46407;SDS011;32110;45.724;21.276;2022-07-18T10:38:25;2.38;;;0.90;;
46407;SDS011;32110;45.724;21.276;2022-07-18T10:41:04;1.77;;;0.95;;
46407;SDS011;32110;45.724;21.276;2022-07-18T10:43:35;4.00;;;1.10;;
46407;SDS011;32110;45.724;21.276;2022-07-18T10:46:03;1.52;;;0.98;;
46407;SDS011;32110;45.724;21.276;2022-07-18T10:58:56;1.88;;;0.82;;
46407;SDS011;32110;45.724;21.276;2022-07-18T11:01:23;2.03;;;0.90;;
46407;SDS011;32110;45.724;21.276;2022-07-18T11:03:49;3.75;;;0.90;;
46407;SDS011;32110;45.724;21.276;2022-07-18T11:06:15;2.13;;;0.90;;
46407;SDS011;32110;45.724;21.276;2022-07-18T11:08:40;0.82;;;0.70;;
46407;SDS011;32110;45.724;21.276;2022-07-18T11:11:07;1.40;;;0.80;;
46407;SDS011;32110;45.724;21.276;2022-07-18T11:13:35;1.03;;;0.70;;
46407;SDS011;32110;45.724;21.276;2022-07-18T11:16:03;1.33;;;0.75;;
46407;SDS011;32110;45.724;21.276;2022-07-18T11:21:16;1.85;;;0.70;;
46407;SDS011;32110;45.724;21.276;2022-07-18T11:26:32;1.30;;;0.93;;
46407;SDS011;32110;45.724;21.276;2022-07-18T11:31:28;1.13;;;0.90;;
46407;SDS011;32110;45.724;21.276;2022-07-18T11:33:54;1.13;;;0.70;;
46407;SDS011;32110;45.724;21.276;2022-07-18T11:36:21;2.47;;;0.93;;
46407;SDS011;32110;45.724;21.276;2022-07-18T11:38:53;1.00;;;0.68;;
46407;SDS011;32110;45.724;21.276;2022-07-18T11:41:20;1.38;;;0.80;;
46407;SDS011;32110;45.724;21.276;2022-07-18T11:43:47;2.00;;;0.98;;
46407;SDS011;32110;45.724;21.276;2022-07-18T11:46:16;1.30;;;0.80;;
46407;SDS011;32110;45.724;21.276;2022-07-18T11:48:47;1.30;;;0.88;;
46407;SDS011;32110;45.724;21.276;2022-07-18T11:51:21;1.92;;;0.70;;
46407;SDS011;32110;45.724;21.276;2022-07-18T11:53:48;3.38;;;1.75;;
46407;SDS011;32110;45.724;21.276;2022-07-18T11:56:15;2.83;;;1.50;;
46407;SDS011;32110;45.724;21.276;2022-07-18T11:58:42;3.10;;;2.50;;
46407;SDS011;32110;45.724;21.276;2022-07-18T12:01:09;2.15;;;1.10;;
46407;SDS011;32110;45.724;21.276;2022-07-18T12:03:36;1.77;;;1.00;;
46407;SDS011;32110;45.724;21.276;2022-07-18T12:08:42;2.70;;;1.80;;
46407;SDS011;32110;45.724;21.276;2022-07-18T12:16:41;4.88;;;1.02;;
46407;SDS011;32110;45.724;21.276;2022-07-18T12:24:17;1.13;;;0.95;;
46407;SDS011;32110;45.724;21.276;2022-07-18T12:26:43;1.60;;;0.90;;
46407;SDS011;32110;45.724;21.276;2022-07-18T12:29:08;2.35;;;0.90;;
46407;SDS011;32110;45.724;21.276;2022-07-18T12:31:38;3.38;;;1.10;;
46407;SDS011;32110;45.724;21.276;2022-07-18T12:34:11;2.15;;;0.77;;
46407;SDS011;32110;45.724;21.276;2022-07-18T12:36:52;3.42;;;1.10;;
46407;SDS011;32110;45.724;21.276;2022-07-18T12:39:31;4.03;;;1.10;;
46407;SDS011;32110;45.724;21.276;2022-07-18T12:41:58;2.33;;;1.55;;
46407;SDS011;32110;45.724;21.276;2022-07-18T12:44:25;6.30;;;1.48;;
46407;SDS011;32110;45.724;21.276;2022-07-18T12:49:19;2.38;;;0.98;;
46407;SDS011;32110;45.724;21.276;2022-07-18T12:51:45;1.95;;;1.00;;
46407;SDS011;32110;45.724;21.276;2022-07-18T12:54:11;1.77;;;0.82;;
46407;SDS011;32110;45.724;21.276;2022-07-18T12:56:36;2.40;;;0.93;;
46407;SDS011;32110;45.724;21.276;2022-07-18T12:59:02;3.80;;;0.95;;
46407;SDS011;32110;45.724;21.276;2022-07-18T13:01:27;1.58;;;0.90;;
46407;SDS011;32110;45.724;21.276;2022-07-18T13:03:53;2.20;;;0.90;;
46407;SDS011;32110;45.724;21.276;2022-07-18T13:06:18;2.45;;;0.80;;
46407;SDS011;32110;45.724;21.276;2022-07-18T13:08:44;4.55;;;0.90;;
46407;SDS011;32110;45.724;21.276;2022-07-18T13:11:09;1.60;;;0.80;;
46407;SDS011;32110;45.724;21.276;2022-07-18T13:13:35;4.50;;;1.00;;
46407;SDS011;32110;45.724;21.276;2022-07-18T13:16:00;3.90;;;1.13;;
46407;SDS011;32110;45.724;21.276;2022-07-18T13:18:26;2.10;;;0.80;;
46407;SDS011;32110;45.724;21.276;2022-07-18T13:20:51;3.03;;;0.82;;
46407;SDS011;32110;45.724;21.276;2022-07-18T13:23:17;1.58;;;1.00;;
46407;SDS011;32110;45.724;21.276;2022-07-18T13:25:43;1.88;;;1.00;;
46407;SDS011;32110;45.724;21.276;2022-07-18T13:28:09;0.98;;;0.90;;
46407;SDS011;32110;45.724;21.276;2022-07-18T13:30:35;1.88;;;1.10;;
46407;SDS011;32110;45.724;21.276;2022-07-18T13:33:01;3.28;;;1.00;;
46407;SDS011;32110;45.724;21.276;2022-07-18T13:35:26;2.42;;;0.85;;
46407;SDS011;32110;45.724;21.276;2022-07-18T13:37:52;2.17;;;0.95;;
46407;SDS011;32110;45.724;21.276;2022-07-18T13:40:17;1.20;;;0.80;;
46407;SDS011;32110;45.724;21.276;2022-07-18T13:42:43;4.60;;;0.90;;
46407;SDS011;32110;45.724;21.276;2022-07-18T13:45:09;2.55;;;0.90;;
46407;SDS011;32110;45.724;21.276;2022-07-18T13:47:34;1.25;;;1.00;;
46407;SDS011;32110;45.724;21.276;2022-07-18T13:50:00;2.80;;;0.90;;
46407;SDS011;32110;45.724;21.276;2022-07-18T13:52:26;2.53;;;0.93;;
46407;SDS011;32110;45.724;21.276;2022-07-18T13:54:51;5.13;;;1.10;;
46407;SDS011;32110;45.724;21.276;2022-07-18T13:57:19;5.22;;;0.98;;
46407;SDS011;32110;45.724;21.276;2022-07-18T13:59:45;2.65;;;0.90;;
46407;SDS011;32110;45.724;21.276;2022-07-18T14:02:10;4.90;;;1.00;;
46407;SDS011;32110;45.724;21.276;2022-07-18T14:04:35;5.13;;;1.10;;
46407;SDS011;32110;45.724;21.276;2022-07-18T14:07:01;2.38;;;0.77;;
46407;SDS011;32110;45.724;21.276;2022-07-18T14:09:27;0.80;;;0.75;;
46407;SDS011;32110;45.724;21.276;2022-07-18T14:11:52;2.47;;;1.13;;
46407;SDS011;32110;45.724;21.276;2022-07-18T14:14:18;2.15;;;1.10;;
46407;SDS011;32110;45.724;21.276;2022-07-18T14:16:43;2.95;;;1.08;;
46407;SDS011;32110;45.724;21.276;2022-07-18T14:19:08;4.30;;;1.02;;
46407;SDS011;32110;45.724;21.276;2022-07-18T14:21:34;1.77;;;0.88;;
46407;SDS011;32110;45.724;21.276;2022-07-18T14:23:59;1.40;;;0.90;;
46407;SDS011;32110;45.724;21.276;2022-07-18T14:26:25;1.58;;;0.77;;
46407;SDS011;32110;45.724;21.276;2022-07-18T14:28:51;1.63;;;0.95;;
46407;SDS011;32110;45.724;21.276;2022-07-18T14:31:16;3.72;;;0.80;;
46407;SDS011;32110;45.724;21.276;2022-07-18T14:33:42;1.42;;;1.00;;
46407;SDS011;32110;45.724;21.276;2022-07-18T14:36:07;2.58;;;1.00;;
46407;SDS011;32110;45.724;21.276;2022-07-18T14:38:33;3.53;;;0.82;;
46407;SDS011;32110;45.724;21.276;2022-07-18T14:40:58;6.15;;;0.90;;
46407;SDS011;32110;45.724;21.276;2022-07-18T14:43:24;3.05;;;0.80;;
46407;SDS011;32110;45.724;21.276;2022-07-18T14:45:49;2.08;;;1.08;;
46407;SDS011;32110;45.724;21.276;2022-07-18T14:48:16;4.43;;;1.00;;
46407;SDS011;32110;45.724;21.276;2022-07-18T14:50:42;2.05;;;1.00;;
46407;SDS011;32110;45.724;21.276;2022-07-18T14:53:08;3.83;;;0.93;;
46407;SDS011;32110;45.724;21.276;2022-07-18T14:55:33;4.70;;;1.20;;
46407;SDS011;32110;45.724;21.276;2022-07-18T14:57:59;4.93;;;1.25;;
46407;SDS011;32110;45.724;21.276;2022-07-18T15:00:25;4.07;;;0.93;;
46407;SDS011;32110;45.724;21.276;2022-07-18T15:02:50;2.30;;;1.05;;
46407;SDS011;32110;45.724;21.276;2022-07-18T15:05:15;3.13;;;0.93;;
46407;SDS011;32110;45.724;21.276;2022-07-18T15:07:42;2.78;;;1.00;;
46407;SDS011;32110;45.724;21.276;2022-07-18T15:10:08;2.22;;;0.93;;
46407;SDS011;32110;45.724;21.276;2022-07-18T15:12:34;3.08;;;0.88;;
46407;SDS011;32110;45.724;21.276;2022-07-18T15:14:59;3.15;;;1.00;;
46407;SDS011;32110;45.724;21.276;2022-07-18T15:17:25;3.20;;;1.17;;
46407;SDS011;32110;45.724;21.276;2022-07-18T15:19:51;1.52;;;0.80;;
46407;SDS011;32110;45.724;21.276;2022-07-18T15:22:16;2.25;;;0.95;;